createdAt,value
2023-03-25T00:02:31.197Z,1.40
2023-03-25T00:05:04.005Z,1.40
2023-03-25T00:07:34.741Z,1.70
2023-03-25T00:10:06.048Z,1.60
2023-03-25T00:12:36.644Z,1.30
2023-03-25T00:15:09.142Z,1.40
2023-03-25T00:17:39.902Z,1.90
2023-03-25T00:20:12.697Z,2.30
2023-03-25T00:22:44.980Z,1.40
2023-03-25T00:25:19.488Z,1.20
2023-03-25T00:27:51.254Z,1.30
2023-03-25T00:30:22.695Z,1.20
2023-03-25T00:32:53.926Z,0.90
2023-03-25T00:35:26.135Z,2.20
2023-03-25T00:38:00.403Z,2.00
2023-03-25T00:40:34.827Z,1.40
2023-03-25T00:43:06.945Z,1.40
2023-03-25T00:45:37.642Z,1.00
2023-03-25T00:48:08.830Z,1.70
2023-03-25T00:50:39.489Z,1.60
2023-03-25T00:53:10.076Z,1.10
2023-03-25T00:55:41.494Z,1.60
2023-03-25T00:58:12.315Z,2.30
2023-03-25T01:00:42.978Z,1.30
2023-03-25T01:03:14.018Z,1.20
2023-03-25T01:05:45.606Z,1.80
2023-03-25T01:08:17.666Z,1.40
2023-03-25T01:10:48.649Z,1.10
2023-03-25T01:13:19.341Z,1.20
2023-03-25T01:15:51.029Z,1.30
2023-03-25T01:18:21.944Z,1.10
2023-03-25T01:20:52.674Z,1.30
2023-03-25T01:23:23.259Z,0.90
2023-03-25T01:25:53.950Z,1.20
2023-03-25T01:28:24.581Z,1.00
2023-03-25T01:31:00.850Z,1.00
2023-03-25T01:33:32.630Z,1.40
2023-03-25T01:36:03.968Z,1.10
2023-03-25T01:38:35.520Z,1.20
2023-03-25T01:41:07.593Z,1.40
2023-03-25T01:43:38.548Z,1.20
2023-03-25T01:46:15.381Z,1.00
2023-03-25T01:48:50.077Z,2.40
2023-03-25T01:51:25.706Z,1.30
2023-03-25T01:53:56.437Z,1.30
2023-03-25T01:56:32.215Z,0.70
2023-03-25T01:59:05.814Z,1.10
2023-03-25T02:01:36.932Z,1.40
2023-03-25T02:04:12.092Z,1.20
2023-03-25T02:06:46.793Z,0.90
2023-03-25T02:09:21.437Z,0.90
2023-03-25T02:11:54.795Z,1.00
2023-03-25T02:14:28.323Z,0.60
2023-03-25T02:17:09.341Z,1.80
2023-03-25T02:20:08.081Z,0.90
2023-03-25T02:22:59.548Z,1.30
2023-03-25T02:25:48.749Z,0.70
2023-03-25T02:28:29.314Z,0.70
2023-03-25T02:31:19.993Z,2.00
2023-03-25T02:34:05.352Z,0.60
2023-03-25T02:36:57.475Z,1.10
2023-03-25T02:39:33.689Z,1.50
2023-03-25T02:42:10.128Z,0.90
2023-03-25T02:44:47.342Z,0.80
2023-03-25T02:47:21.324Z,1.20
2023-03-25T02:49:57.186Z,1.20
2023-03-25T02:52:32.595Z,1.10
2023-03-25T02:55:10.472Z,1.10
2023-03-25T02:57:46.184Z,0.70
2023-03-25T03:00:22.160Z,1.10
2023-03-25T03:02:59.971Z,1.40
2023-03-25T03:05:33.578Z,1.60
2023-03-25T03:08:23.606Z,0.90
2023-03-25T03:11:03.673Z,1.00
2023-03-25T03:13:50.987Z,1.40
2023-03-25T03:16:30.993Z,0.80
2023-03-25T03:19:09.419Z,1.40
2023-03-25T03:21:46.427Z,1.00
2023-03-25T03:24:22.772Z,0.50
2023-03-25T03:26:59.155Z,1.00
2023-03-25T03:29:35.741Z,0.80
2023-03-25T03:32:11.556Z,1.20
2023-03-25T03:34:48.553Z,1.40
2023-03-25T03:37:25.049Z,0.80
2023-03-25T03:39:58.821Z,0.80
2023-03-25T03:42:35.980Z,1.10
2023-03-25T03:45:14.452Z,1.30
2023-03-25T03:47:51.099Z,1.10
2023-03-25T03:50:25.905Z,0.90
2023-03-25T03:53:03.116Z,0.70
2023-03-25T03:55:39.231Z,1.10
2023-03-25T03:58:16.372Z,1.10
2023-03-25T04:00:54.390Z,1.10
2023-03-25T04:03:30.389Z,0.90
2023-03-25T04:06:09.874Z,1.10
2023-03-25T04:08:51.926Z,1.20
2023-03-25T04:11:27.163Z,0.60
2023-03-25T04:14:01.120Z,0.60
2023-03-25T04:16:34.674Z,1.40
2023-03-25T04:19:06.877Z,1.10
2023-03-25T04:21:37.508Z,1.30
2023-03-25T04:24:08.477Z,0.60
2023-03-25T04:26:39.105Z,1.00
2023-03-25T04:29:10.151Z,1.00
2023-03-25T04:31:48.406Z,0.70
2023-03-25T04:34:20.720Z,0.90
2023-03-25T04:36:51.976Z,0.90
2023-03-25T04:39:23.650Z,0.70
2023-03-25T04:41:54.992Z,1.10
2023-03-25T04:44:27.237Z,0.90
2023-03-25T04:46:58.415Z,0.70
2023-03-25T04:49:29.160Z,3.20
2023-03-25T04:52:02.265Z,1.50
2023-03-25T04:54:32.982Z,0.90
2023-03-25T04:57:03.756Z,0.70
2023-03-25T04:59:34.410Z,1.40
2023-03-25T05:02:06.376Z,0.80
2023-03-25T05:04:37.153Z,0.80
2023-03-25T05:07:07.898Z,0.80
2023-03-25T05:09:38.550Z,1.00
2023-03-25T05:12:11.517Z,2.20
2023-03-25T05:14:42.570Z,0.80
2023-03-25T05:17:13.146Z,1.50
2023-03-25T05:19:44.039Z,1.50
2023-03-25T05:22:14.881Z,0.90
2023-03-25T05:24:48.279Z,1.10
2023-03-25T05:27:20.364Z,0.60
2023-03-25T05:29:52.117Z,1.20
2023-03-25T05:32:23.711Z,1.10
2023-03-25T05:34:54.509Z,0.70
2023-03-25T05:37:25.202Z,0.40
2023-03-25T05:39:56.512Z,0.90
2023-03-25T05:42:27.482Z,0.80
2023-03-25T05:44:58.173Z,1.20
2023-03-25T05:47:29.279Z,1.00
2023-03-25T05:50:00.407Z,0.80
2023-03-25T05:52:31.148Z,0.90
2023-03-25T05:55:02.922Z,0.50
2023-03-25T05:57:33.706Z,1.20
2023-03-25T06:00:08.496Z,1.20
2023-03-25T06:02:39.898Z,1.20
2023-03-25T06:05:14.252Z,0.60
2023-03-25T06:07:47.498Z,1.80
2023-03-25T06:10:19.494Z,0.90
2023-03-25T06:12:53.114Z,0.90
2023-03-25T06:18:00.763Z,1.10
2023-03-25T06:20:31.587Z,0.60
2023-03-25T06:23:03.409Z,0.70
2023-03-25T06:25:34.676Z,1.40
2023-03-25T06:28:06.301Z,1.10
2023-03-25T06:30:36.941Z,1.00
2023-03-25T06:33:07.685Z,2.10
2023-03-25T06:35:38.560Z,0.80
2023-03-25T06:38:10.485Z,1.50
2023-03-25T06:40:41.544Z,0.80
2023-03-25T06:43:12.184Z,0.90
2023-03-25T06:45:42.927Z,1.00
2023-03-25T06:48:13.857Z,1.10
2023-03-25T06:50:45.608Z,1.30
2023-03-25T06:53:16.419Z,0.80
2023-03-25T06:55:47.185Z,0.70
2023-03-25T06:58:18.172Z,0.60
2023-03-25T07:00:48.972Z,0.80
2023-03-25T07:03:19.921Z,0.90
2023-03-25T07:05:51.949Z,1.60
2023-03-25T07:08:23.148Z,0.80
2023-03-25T07:10:53.886Z,2.40
2023-03-25T07:13:24.848Z,2.50
2023-03-25T07:15:57.700Z,1.90
2023-03-25T07:18:28.516Z,2.10
2023-03-25T07:20:59.371Z,1.50
2023-03-25T07:23:30.214Z,3.30
2023-03-25T07:26:01.160Z,1.00
2023-03-25T07:28:31.999Z,3.10
2023-03-25T07:31:03.183Z,2.90
2023-03-25T07:33:34.054Z,0.70
2023-03-25T07:36:05.719Z,1.80
2023-03-25T07:38:36.999Z,3.90
2023-03-25T07:41:10.942Z,1.50
2023-03-25T07:43:43.322Z,0.40
2023-03-25T07:46:14.401Z,2.20
2023-03-25T07:48:45.226Z,1.00
2023-03-25T07:51:16.023Z,0.50
2023-03-25T07:53:46.798Z,0.50
2023-03-25T07:56:17.802Z,0.70
2023-03-25T07:58:49.803Z,1.10
2023-03-25T08:01:20.667Z,2.20
2023-03-25T08:03:51.813Z,0.70
2023-03-25T08:06:22.792Z,0.60
2023-03-25T08:08:53.546Z,0.80
2023-03-25T08:11:24.552Z,0.90
2023-03-25T08:13:55.519Z,1.20
2023-03-25T08:16:26.529Z,1.30
2023-03-25T08:18:57.373Z,0.40
2023-03-25T08:21:28.155Z,1.40
2023-03-25T08:24:02.597Z,4.80
2023-03-25T08:26:35.038Z,3.40
2023-03-25T08:29:07.860Z,6.70
2023-03-25T08:31:39.267Z,2.20
2023-03-25T08:34:10.068Z,10.80
2023-03-25T08:36:40.822Z,4.70
2023-03-25T08:39:12.925Z,2.00
2023-03-25T08:41:44.075Z,3.30
2023-03-25T08:44:15.156Z,0.90
2023-03-25T08:46:45.994Z,5.60
2023-03-25T08:49:17.014Z,2.20
2023-03-25T08:51:47.960Z,3.30
2023-03-25T08:54:18.811Z,8.90
2023-03-25T08:56:49.567Z,4.50
2023-03-25T08:59:20.923Z,4.20
2023-03-25T09:01:53.317Z,6.10
2023-03-25T09:04:25.539Z,7.20
2023-03-25T09:07:11.315Z,5.50
2023-03-25T09:09:43.179Z,4.80
2023-03-25T09:12:14.134Z,6.50
2023-03-25T09:14:45.248Z,2.60
2023-03-25T09:17:16.007Z,2.50
2023-03-25T09:19:48.001Z,6.30
2023-03-25T09:22:18.960Z,4.50
2023-03-25T09:24:50.255Z,2.90
2023-03-25T09:27:21.283Z,4.00
2023-03-25T09:29:51.966Z,2.40
2023-03-25T09:32:23.633Z,2.80
2023-03-25T09:34:55.072Z,4.60
2023-03-25T09:37:26.046Z,2.50
2023-03-25T09:39:57.478Z,2.20
2023-03-25T09:42:42.566Z,2.30
2023-03-25T09:45:30.746Z,1.20
2023-03-25T09:48:05.538Z,3.40
2023-03-25T09:50:38.018Z,1.00
2023-03-25T09:53:19.352Z,2.60
2023-03-25T09:55:52.231Z,1.80
2023-03-25T09:58:42.083Z,2.70
2023-03-25T10:01:34.978Z,1.40
2023-03-25T10:04:20.251Z,1.90
2023-03-25T10:06:57.836Z,3.20
2023-03-25T10:09:40.824Z,1.60
2023-03-25T10:12:24.804Z,2.00
2023-03-25T10:15:05.143Z,4.90
2023-03-25T10:17:46.519Z,2.50
2023-03-25T10:20:24.416Z,1.10
2023-03-25T10:23:14.091Z,1.80
2023-03-25T10:25:49.295Z,1.70
2023-03-25T10:28:28.677Z,1.70
2023-03-25T10:31:00.324Z,2.40
2023-03-25T10:33:37.886Z,1.80
2023-03-25T10:36:14.759Z,1.70
2023-03-25T10:38:45.735Z,2.30
2023-03-25T10:41:24.352Z,1.60
2023-03-25T10:43:55.592Z,1.60
2023-03-25T10:46:32.825Z,2.60
2023-03-25T10:49:03.822Z,3.60
2023-03-25T10:51:36.837Z,2.00
2023-03-25T10:54:08.413Z,1.20
2023-03-25T10:56:43.441Z,3.50
2023-03-25T10:59:20.880Z,1.10
2023-03-25T11:01:53.435Z,1.50
2023-03-25T11:04:28.517Z,1.80
2023-03-25T11:07:05.806Z,0.80
2023-03-25T11:09:38.279Z,1.30
2023-03-25T11:12:10.181Z,2.50
2023-03-25T11:14:41.947Z,1.40
2023-03-25T11:17:21.769Z,1.70
2023-03-25T11:19:59.625Z,1.40
2023-03-25T11:22:32.957Z,3.00
2023-03-25T11:25:07.490Z,1.50
2023-03-25T11:27:48.257Z,1.90
2023-03-25T11:30:25.641Z,3.20
2023-03-25T11:33:09.315Z,1.60
2023-03-25T11:35:47.396Z,2.20
2023-03-25T11:38:20.965Z,1.70
2023-03-25T11:43:27.460Z,5.10
2023-03-25T11:45:58.343Z,3.80
2023-03-25T11:48:36.823Z,4.00
2023-03-25T11:51:20.292Z,2.30
2023-03-25T11:53:58.346Z,3.30
2023-03-25T11:56:36.029Z,3.20
2023-03-25T11:59:18.828Z,1.60
2023-03-25T12:01:51.233Z,1.60
2023-03-25T12:04:24.183Z,1.10
2023-03-25T12:07:01.807Z,1.10
2023-03-25T12:09:33.697Z,0.70
2023-03-25T12:12:28.909Z,0.90
2023-03-25T12:15:08.681Z,0.70
2023-03-25T12:17:53.380Z,1.40
2023-03-25T12:20:30.768Z,5.20
2023-03-25T12:23:14.045Z,2.90
2023-03-25T12:25:55.534Z,4.90
2023-03-25T12:28:49.344Z,2.80
2023-03-25T12:31:32.319Z,1.60
2023-03-25T12:34:16.527Z,3.40
2023-03-25T12:36:56.316Z,1.30
2023-03-25T12:39:43.442Z,2.20
2023-03-25T12:42:30.474Z,5.00
2023-03-25T12:45:18.202Z,3.10
2023-03-25T12:47:56.982Z,1.30
2023-03-25T12:50:39.061Z,2.40
2023-03-25T12:53:21.831Z,5.40
2023-03-25T12:56:06.829Z,4.50
2023-03-25T12:59:04.779Z,1.80
2023-03-25T13:01:49.788Z,3.20
2023-03-25T13:04:49.934Z,1.60
2023-03-25T13:07:25.715Z,2.20
2023-03-25T13:10:04.935Z,4.40
2023-03-25T13:12:42.860Z,3.80
2023-03-25T13:15:26.902Z,0.70
2023-03-25T13:18:04.172Z,4.90
2023-03-25T13:20:39.048Z,1.50
2023-03-25T13:23:17.830Z,3.50
2023-03-25T13:25:53.194Z,7.60
2023-03-25T13:28:30.528Z,4.20
2023-03-25T13:31:02.794Z,2.50
2023-03-25T13:33:40.815Z,7.60
2023-03-25T13:36:24.263Z,4.70
2023-03-25T13:38:58.505Z,3.70
2023-03-25T13:41:35.602Z,3.70
2023-03-25T13:44:12.660Z,3.20
2023-03-25T13:46:48.100Z,3.50
2023-03-25T13:49:25.021Z,1.80
2023-03-25T13:51:56.351Z,4.40
2023-03-25T13:54:34.719Z,1.70
2023-03-25T13:57:41.745Z,1.00
2023-03-25T14:00:32.242Z,2.30
2023-03-25T14:03:47.495Z,3.00
2023-03-25T14:06:36.567Z,1.40
2023-03-25T14:09:32.667Z,3.50
2023-03-25T14:12:08.351Z,2.20
2023-03-25T14:14:43.985Z,1.50
2023-03-25T14:17:17.586Z,1.10
2023-03-25T14:22:27.570Z,2.20
2023-03-25T14:24:59.652Z,1.60
2023-03-25T14:27:34.789Z,1.80
2023-03-25T14:30:09.719Z,1.30
2023-03-25T14:32:42.411Z,1.20
2023-03-25T14:36:00.134Z,2.10
2023-03-25T14:38:54.026Z,0.80
2023-03-25T14:42:01.870Z,1.00
2023-03-25T14:44:35.653Z,1.30
2023-03-25T14:47:32.269Z,1.50
2023-03-25T14:50:29.276Z,2.60
2023-03-25T14:53:02.677Z,0.90
2023-03-25T14:55:36.965Z,1.90
2023-03-25T14:58:21.286Z,1.00
2023-03-25T15:01:00.561Z,3.00
2023-03-25T15:03:36.165Z,3.40
2023-03-25T15:06:10.510Z,4.80
2023-03-25T15:08:44.092Z,6.10
2023-03-25T15:16:33.235Z,2.80
2023-03-25T15:19:07.675Z,7.50
2023-03-25T15:22:16.792Z,3.60
2023-03-25T15:24:54.122Z,3.60
2023-03-25T15:27:51.241Z,4.90
2023-03-25T15:30:42.174Z,4.10
2023-03-25T15:33:29.730Z,2.70
2023-03-25T15:36:21.496Z,4.90
2023-03-25T15:39:07.784Z,11.20
2023-03-25T15:42:08.104Z,9.00
2023-03-25T15:45:02.440Z,6.10
2023-03-25T15:48:04.638Z,12.00
2023-03-25T15:50:45.827Z,4.80
2023-03-25T15:53:58.294Z,5.00
2023-03-25T15:56:32.019Z,6.90
2023-03-25T15:59:07.883Z,8.20
2023-03-25T16:01:42.739Z,8.20
2023-03-25T16:04:21.810Z,6.30
2023-03-25T16:06:57.859Z,6.80
2023-03-25T16:09:32.381Z,5.30
2023-03-25T16:12:04.062Z,4.30
2023-03-25T16:14:36.610Z,6.40
2023-03-25T16:17:09.936Z,9.70
2023-03-25T16:19:48.985Z,6.00
2023-03-25T16:22:26.899Z,6.70
2023-03-25T16:25:00.800Z,5.80
2023-03-25T16:27:35.133Z,5.50
2023-03-25T16:30:20.390Z,4.00
2023-03-25T16:32:52.447Z,7.90
2023-03-25T16:35:29.293Z,8.40
2023-03-25T16:38:00.882Z,4.90
2023-03-25T16:40:33.540Z,7.30
2023-03-25T16:43:09.489Z,5.30
2023-03-25T16:45:41.705Z,5.40
2023-03-25T16:48:18.528Z,4.80
2023-03-25T16:50:50.508Z,2.30
2023-03-25T16:53:23.010Z,4.00
2023-03-25T16:56:04.546Z,3.10
2023-03-25T16:58:38.326Z,5.60
2023-03-25T17:01:12.636Z,4.80
2023-03-25T17:03:46.541Z,2.00
2023-03-25T17:06:26.236Z,3.20
2023-03-25T17:11:31.758Z,3.00
2023-03-25T17:14:06.244Z,3.00
2023-03-25T17:16:40.645Z,3.40
2023-03-25T17:19:15.992Z,3.70
2023-03-25T17:22:02.207Z,1.60
2023-03-25T17:24:41.952Z,2.20
2023-03-25T17:27:26.050Z,3.40
2023-03-25T17:30:00.656Z,2.60
2023-03-25T17:32:43.664Z,2.00
2023-03-25T17:35:24.136Z,2.00
2023-03-25T17:37:55.345Z,4.90
2023-03-25T17:40:29.539Z,5.30
2023-03-25T17:43:01.525Z,3.40
2023-03-25T17:45:32.672Z,4.00
2023-03-25T17:48:03.880Z,5.40
2023-03-25T17:50:34.760Z,7.40
2023-03-25T17:53:06.317Z,3.70
2023-03-25T17:55:37.440Z,9.00
2023-03-25T17:58:09.847Z,4.30
2023-03-25T18:00:40.721Z,8.30
2023-03-25T18:03:22.872Z,5.50
2023-03-25T18:05:54.778Z,5.40
2023-03-25T18:08:27.035Z,5.50
2023-03-25T18:10:58.912Z,4.80
2023-03-25T18:13:30.542Z,3.40
2023-03-25T18:16:01.295Z,2.90
2023-03-25T18:18:33.451Z,3.20
2023-03-25T18:21:04.735Z,3.00
2023-03-25T18:23:35.856Z,3.50
2023-03-25T18:26:12.567Z,5.80
2023-03-25T18:28:43.970Z,3.80
2023-03-25T18:31:17.502Z,2.60
2023-03-25T18:33:50.156Z,3.80
2023-03-25T18:36:23.765Z,2.50
2023-03-25T18:38:55.136Z,2.50
2023-03-25T18:41:26.056Z,1.30
2023-03-25T18:43:57.363Z,1.20
2023-03-25T18:46:28.358Z,2.40
2023-03-25T18:49:02.640Z,3.30
2023-03-25T18:51:33.894Z,2.70
2023-03-25T18:54:05.244Z,2.40
2023-03-25T18:56:37.090Z,1.60
2023-03-25T18:59:08.712Z,1.20
2023-03-25T19:01:40.002Z,1.70
2023-03-25T19:04:11.149Z,2.10
2023-03-25T19:06:43.119Z,2.00
2023-03-25T19:09:19.465Z,1.80
2023-03-25T19:11:50.782Z,2.70
2023-03-25T19:14:22.870Z,2.10
2023-03-25T19:17:03.063Z,2.20
2023-03-25T19:19:36.253Z,2.10
2023-03-25T19:22:09.907Z,3.20
2023-03-25T19:24:41.388Z,1.30
2023-03-25T19:27:12.589Z,1.90
2023-03-25T19:29:44.513Z,1.30
2023-03-25T19:32:15.375Z,1.70
2023-03-25T19:34:47.999Z,0.90
2023-03-25T19:37:18.832Z,1.80
2023-03-25T19:39:50.179Z,1.30
2023-03-25T19:42:21.017Z,1.60
2023-03-25T19:44:52.018Z,1.10
2023-03-25T19:47:22.975Z,2.20
2023-03-25T19:49:53.838Z,1.90
2023-03-25T19:52:24.787Z,1.20
2023-03-25T19:54:55.928Z,2.10
2023-03-25T19:57:27.603Z,2.70
2023-03-25T19:59:58.638Z,1.30
2023-03-25T20:02:33.554Z,1.90
2023-03-25T20:05:05.162Z,2.20
2023-03-25T20:07:36.120Z,1.00
2023-03-25T20:12:48.608Z,1.50
2023-03-25T20:15:21.046Z,1.40
2023-03-25T20:17:53.463Z,2.30
2023-03-25T20:20:25.947Z,2.10
2023-03-25T20:22:56.893Z,1.00
2023-03-25T20:25:28.307Z,2.70
2023-03-25T20:27:59.105Z,1.30
2023-03-25T20:30:32.373Z,1.10
2023-03-25T20:33:03.303Z,2.80
2023-03-25T20:35:35.270Z,2.90
2023-03-25T20:38:06.388Z,0.90
2023-03-25T20:40:44.637Z,3.20
2023-03-25T20:43:16.584Z,2.80
2023-03-25T20:45:47.634Z,1.40
2023-03-25T20:48:18.475Z,1.60
2023-03-25T20:50:49.665Z,1.40
2023-03-25T20:53:20.476Z,1.30
2023-03-25T20:55:51.686Z,0.90
2023-03-25T20:58:22.927Z,1.90
2023-03-25T21:00:56.213Z,1.40
2023-03-25T21:03:27.513Z,1.60
2023-03-25T21:06:07.319Z,0.90
2023-03-25T21:08:41.555Z,1.20
2023-03-25T21:11:12.265Z,1.50
2023-03-25T21:13:43.413Z,2.10
2023-03-25T21:16:16.635Z,1.90
2023-03-25T21:18:49.533Z,0.90
2023-03-25T21:21:21.046Z,1.00
2023-03-25T21:23:53.262Z,0.80
2023-03-25T21:26:27.900Z,1.20
2023-03-25T21:28:59.867Z,1.30
2023-03-25T21:31:31.506Z,1.40
2023-03-25T21:34:02.845Z,1.10
2023-03-25T21:36:33.927Z,0.90
2023-03-25T21:39:06.932Z,1.30
2023-03-25T21:41:38.556Z,0.80
2023-03-25T21:44:10.243Z,0.50
2023-03-25T21:46:41.058Z,1.40
2023-03-25T21:49:14.068Z,1.50
2023-03-25T21:51:50.633Z,1.40
2023-03-25T21:54:22.081Z,0.80
2023-03-25T21:56:54.781Z,1.50
2023-03-25T21:59:25.868Z,0.90
2023-03-25T22:01:56.573Z,1.00
2023-03-25T22:04:27.440Z,1.00
2023-03-25T22:06:59.136Z,1.10
2023-03-25T22:09:29.879Z,0.80
2023-03-25T22:12:00.615Z,0.80
2023-03-25T22:14:31.464Z,0.60
2023-03-25T22:17:02.472Z,1.00
2023-03-25T22:19:33.952Z,1.20
2023-03-25T22:22:04.697Z,4.90
2023-03-25T22:24:35.643Z,3.70
2023-03-25T22:27:07.015Z,1.10
2023-03-25T22:29:38.170Z,1.10
2023-03-25T22:32:09.280Z,1.50
2023-03-25T22:34:40.191Z,1.30
2023-03-25T22:37:10.910Z,1.80
2023-03-25T22:39:41.711Z,5.30
2023-03-25T22:42:12.440Z,1.50
2023-03-25T22:44:44.849Z,1.60
2023-03-25T22:47:15.742Z,2.50
2023-03-25T22:49:46.456Z,0.70
2023-03-25T22:52:17.335Z,1.70
2023-03-25T22:54:48.113Z,1.10
2023-03-25T22:57:19.409Z,0.60
2023-03-25T22:59:50.746Z,2.00
2023-03-25T23:02:21.924Z,1.40
2023-03-25T23:04:52.688Z,1.60
2023-03-25T23:07:23.363Z,0.70
2023-03-25T23:09:54.139Z,0.60
2023-03-25T23:12:26.311Z,0.70
2023-03-25T23:14:58.220Z,1.30
2023-03-25T23:17:29.260Z,0.70
2023-03-25T23:20:00.280Z,1.30
2023-03-25T23:22:31.520Z,2.00
2023-03-25T23:25:04.591Z,0.60
2023-03-25T23:27:35.571Z,0.90
2023-03-25T23:30:08.369Z,1.10
2023-03-25T23:32:41.601Z,0.80
2023-03-25T23:35:18.706Z,0.80
2023-03-25T23:37:50.357Z,0.70
2023-03-25T23:40:22.395Z,1.40
2023-03-25T23:42:53.583Z,0.70
2023-03-25T23:45:30.287Z,2.40
2023-03-25T23:48:01.436Z,0.80
2023-03-25T23:50:32.346Z,0.60
2023-03-25T23:53:03.216Z,1.50
2023-03-25T23:55:36.076Z,3.20
2023-03-25T23:58:06.916Z,1.40
